createdAt,value
2017-07-21T00:00:58.004Z,18.49
2017-07-21T00:01:57.991Z,18.5
2017-07-21T00:02:57.993Z,18.5
2017-07-21T00:03:58.295Z,18.46
2017-07-21T00:04:58.290Z,18.59
2017-07-21T00:05:57.645Z,18.57
2017-07-21T00:06:57.634Z,18.57
2017-07-21T00:07:58.247Z,18.59
2017-07-21T00:08:57.927Z,18.57
2017-07-21T00:09:58.228Z,18.54
2017-07-21T00:10:58.219Z,18.68
2017-07-21T00:11:58.228Z,18.57
2017-07-21T00:12:58.202Z,18.55
2017-07-21T00:13:57.562Z,18.65
2017-07-21T00:14:58.182Z,18.58
2017-07-21T00:15:57.911Z,18.5
2017-07-21T00:16:57.851Z,18.58
2017-07-21T00:17:57.847Z,18.52
2017-07-21T00:18:58.140Z,18.5
2017-07-21T00:19:58.136Z,18.39
2017-07-21T00:20:57.499Z,18.46
2017-07-21T00:21:57.806Z,18.42
2017-07-21T00:22:58.107Z,18.39
2017-07-21T00:23:58.106Z,18.42
2017-07-21T00:24:57.463Z,18.4
2017-07-21T00:25:58.083Z,18.39
2017-07-21T00:26:57.767Z,18.37
2017-07-21T00:27:57.752Z,18.4
2017-07-21T00:28:57.746Z,18.36
2017-07-21T00:29:58.041Z,18.43
2017-07-21T00:30:57.716Z,18.4
2017-07-21T00:31:58.025Z,18.36
2017-07-21T00:32:57.699Z,18.34
2017-07-21T00:33:58.004Z,18.25
2017-07-21T00:34:57.984Z,18.24
2017-07-21T00:35:57.673Z,18.21
2017-07-21T00:36:57.656Z,18.18
2017-07-21T00:37:57.963Z,18.13
2017-07-21T00:38:57.329Z,18.12
2017-07-21T00:39:57.947Z,18.13
2017-07-21T00:40:57.935Z,18.1
2017-07-21T00:41:57.613Z,18.06
2017-07-21T00:42:57.606Z,17.95
2017-07-21T00:43:57.910Z,17.99
2017-07-21T00:44:57.579Z,17.88
2017-07-21T00:45:57.885Z,17.84
2017-07-21T00:46:57.874Z,17.81
2017-07-21T00:47:57.863Z,17.87
2017-07-21T00:48:57.855Z,17.87
2017-07-21T00:49:57.221Z,17.79
2017-07-21T00:50:57.839Z,17.79
2017-07-21T00:51:57.511Z,17.7
2017-07-21T00:52:57.190Z,17.78
2017-07-21T00:53:57.804Z,17.67
2017-07-21T00:54:57.835Z,17.71
2017-07-21T00:55:57.159Z,17.73
2017-07-21T00:56:57.768Z,17.66
2017-07-21T00:57:57.454Z,17.62
2017-07-21T00:58:57.758Z,17.66
2017-07-21T00:59:57.432Z,17.62
2017-07-21T01:00:57.738Z,17.53
2017-07-21T01:01:57.412Z,17.53
2017-07-21T01:02:57.713Z,17.43
2017-07-21T01:03:57.392Z,17.48
2017-07-21T01:04:57.070Z,17.48
2017-07-21T01:05:57.886Z,17.5
2017-07-21T01:06:57.363Z,17.51
2017-07-21T01:07:57.392Z,17.47
2017-07-21T01:08:57.657Z,17.4
2017-07-21T01:09:57.335Z,17.38
2017-07-21T01:10:57.631Z,17.38
2017-07-21T01:11:57.622Z,17.33
2017-07-21T01:12:57.298Z,17.32
2017-07-21T01:13:57.292Z,17.35
2017-07-21T01:14:56.963Z,17.36
2017-07-21T01:15:57.275Z,17.38
2017-07-21T01:16:57.568Z,17.38
2017-07-21T01:17:57.249Z,17.38
2017-07-21T01:18:57.244Z,17.36
2017-07-21T01:19:57.232Z,17.4
2017-07-21T01:20:57.217Z,17.41
2017-07-21T01:21:57.206Z,17.32
2017-07-21T01:22:57.198Z,17.29
2017-07-21T01:23:57.186Z,17.33
2017-07-21T01:24:56.865Z,17.33
2017-07-21T01:25:57.483Z,17.35
2017-07-21T01:26:56.843Z,17.26
2017-07-21T01:27:57.154Z,17.22
2017-07-21T01:28:57.134Z,17.22
2017-07-21T01:29:56.813Z,17.23
2017-07-21T01:30:57.117Z,17.22
2017-07-21T01:31:57.417Z,17.15
2017-07-21T01:32:57.098Z,17.13
2017-07-21T01:33:57.396Z,17.15
2017-07-21T01:34:57.081Z,17.1
2017-07-21T01:35:57.371Z,17.11
2017-07-21T01:36:57.364Z,17.1
2017-07-21T01:37:57.042Z,17.11
2017-07-21T01:38:57.350Z,17.15
2017-07-21T01:39:57.021Z,17.15
2017-07-21T01:40:57.331Z,17.14
2017-07-21T01:41:57.005Z,17.11
2017-07-21T01:42:56.991Z,17.15
2017-07-21T01:43:57.292Z,17.11
2017-07-21T01:44:57.285Z,17.11
2017-07-21T01:45:56.963Z,17.08
2017-07-21T01:46:57.004Z,17.08
2017-07-21T01:47:57.254Z,17.1
2017-07-21T01:48:56.925Z,17.07
2017-07-21T01:49:56.611Z,17.08
2017-07-21T01:50:56.915Z,17
2017-07-21T01:51:56.899Z,16.96
2017-07-21T01:52:56.887Z,16.92
2017-07-21T01:53:57.194Z,16.89
2017-07-21T01:54:57.183Z,16.86
2017-07-21T01:55:56.577Z,16.83
2017-07-21T01:56:56.539Z,16.83
2017-07-21T01:57:57.153Z,16.78
2017-07-21T01:58:57.153Z,16.81
2017-07-21T01:59:56.499Z,16.75
2017-07-21T02:00:56.812Z,16.68
2017-07-21T02:01:56.796Z,16.73
2017-07-21T02:02:57.098Z,16.62
2017-07-21T02:03:56.878Z,16.63
2017-07-21T02:04:56.765Z,16.63
2017-07-21T02:05:56.780Z,16.58
2017-07-21T02:06:56.744Z,16.62
2017-07-21T02:07:57.047Z,16.55
2017-07-21T02:08:56.407Z,16.49
2017-07-21T02:09:57.024Z,16.49
2017-07-21T02:10:57.013Z,16.53
2017-07-21T02:11:56.691Z,16.52
2017-07-21T02:12:56.988Z,16.44
2017-07-21T02:13:56.978Z,16.48
2017-07-21T02:14:56.967Z,16.42
2017-07-21T02:15:56.960Z,16.34
2017-07-21T02:16:56.688Z,16.37
2017-07-21T02:17:56.940Z,16.41
2017-07-21T02:18:56.617Z,16.35
2017-07-21T02:19:56.602Z,16.3
2017-07-21T02:20:56.279Z,16.37
2017-07-21T02:21:56.581Z,16.26
2017-07-21T02:22:56.571Z,16.23
2017-07-21T02:23:56.557Z,16.25
2017-07-21T02:24:56.551Z,16.16
2017-07-21T02:25:56.536Z,16.22
2017-07-21T02:26:56.841Z,16.18
2017-07-21T02:27:56.824Z,16.15
2017-07-21T02:28:56.504Z,16.2
2017-07-21T02:29:56.181Z,16.06
2017-07-21T02:30:56.801Z,16.04
2017-07-21T02:31:56.473Z,16.06
2017-07-21T02:32:56.777Z,16
2017-07-21T02:33:56.766Z,15.97
2017-07-21T02:34:56.751Z,16
2017-07-21T02:35:56.442Z,15.94
2017-07-21T02:36:56.102Z,15.92
2017-07-21T02:37:56.406Z,15.89
2017-07-21T02:38:56.080Z,15.92
2017-07-21T02:39:56.695Z,15.82
2017-07-21T02:40:56.372Z,15.85
2017-07-21T02:41:56.672Z,15.76
2017-07-21T02:42:56.350Z,15.79
2017-07-21T02:43:56.335Z,15.7
2017-07-21T02:44:56.641Z,15.72
2017-07-21T02:45:56.320Z,15.72
2017-07-21T02:46:56.615Z,15.68
2017-07-21T02:47:56.607Z,15.63
2017-07-21T02:48:56.592Z,15.64
2017-07-21T02:49:55.965Z,15.64
2017-07-21T02:50:56.569Z,15.59
2017-07-21T02:51:56.250Z,15.64
2017-07-21T02:52:56.550Z,15.52
2017-07-21T02:53:56.224Z,15.63
2017-07-21T02:54:56.212Z,15.56
2017-07-21T02:55:56.521Z,15.6
2017-07-21T02:56:56.189Z,15.52
2017-07-21T02:57:56.184Z,15.59
2017-07-21T02:58:56.169Z,15.54
2017-07-21T02:59:56.467Z,15.48
2017-07-21T03:00:56.144Z,15.43
2017-07-21T03:01:56.134Z,15.43
2017-07-21T03:02:56.171Z,15.46
2017-07-21T03:03:56.137Z,15.43
2017-07-21T03:04:56.098Z,15.39
2017-07-21T03:05:56.612Z,15.43
2017-07-21T03:06:56.400Z,15.31
2017-07-21T03:07:56.077Z,15.36
2017-07-21T03:08:56.369Z,15.38
2017-07-21T03:09:56.360Z,15.39
2017-07-21T03:10:56.033Z,15.39
2017-07-21T03:11:56.018Z,15.3
2017-07-21T03:12:56.008Z,15.38
2017-07-21T03:13:56.001Z,15.35
2017-07-21T03:14:55.985Z,15.42
2017-07-21T03:15:56.294Z,15.24
2017-07-21T03:16:56.278Z,15.33
2017-07-21T03:17:55.982Z,15.24
2017-07-21T03:18:55.625Z,15.31
2017-07-21T03:19:56.238Z,15.24
2017-07-21T03:20:55.610Z,15.28
2017-07-21T03:21:55.908Z,15.21
2017-07-21T03:22:55.896Z,15.23
2017-07-21T03:23:55.574Z,15.21
2017-07-21T03:24:55.558Z,15.26
2017-07-21T03:25:56.168Z,15.08
2017-07-21T03:26:55.845Z,15.17
2017-07-21T03:27:55.836Z,15.11
2017-07-21T03:28:55.515Z,15.11
2017-07-21T03:29:56.121Z,15.11
2017-07-21T03:30:56.118Z,15.06
2017-07-21T03:31:55.788Z,15.11
2017-07-21T03:32:55.777Z,15.08
2017-07-21T03:33:56.105Z,15.01
2017-07-21T03:34:56.061Z,15.05
2017-07-21T03:35:55.429Z,14.98
2017-07-21T03:36:55.732Z,15.05
2017-07-21T03:37:55.715Z,14.93
2017-07-21T03:38:56.020Z,14.95
2017-07-21T03:39:56.002Z,14.9
2017-07-21T03:40:55.682Z,14.95
2017-07-21T03:41:55.984Z,14.94
2017-07-21T03:42:56.006Z,14.84
2017-07-21T03:43:55.956Z,14.93
2017-07-21T03:44:55.646Z,14.84
2017-07-21T03:45:55.624Z,14.86
2017-07-21T03:46:55.302Z,14.88
2017-07-21T03:47:55.935Z,14.84
2017-07-21T03:48:55.904Z,14.84
2017-07-21T03:49:55.919Z,14.88
2017-07-21T03:50:55.908Z,14.86
2017-07-21T03:51:55.551Z,14.87
2017-07-21T03:52:55.857Z,14.84
2017-07-21T03:53:55.847Z,14.78
2017-07-21T03:54:55.518Z,14.84
2017-07-21T03:55:55.192Z,14.88
2017-07-21T03:56:55.807Z,14.83
2017-07-21T03:57:55.478Z,14.88
2017-07-21T03:58:55.782Z,14.83
2017-07-21T03:59:55.455Z,14.86
2017-07-21T04:00:55.446Z,14.86
2017-07-21T04:01:55.431Z,14.83
2017-07-21T04:02:55.419Z,14.88
2017-07-21T04:03:55.410Z,14.87
2017-07-21T04:04:55.704Z,14.88
2017-07-21T04:05:55.699Z,14.93
2017-07-21T04:06:55.683Z,14.84
2017-07-21T04:07:55.057Z,14.84
2017-07-21T04:08:55.033Z,14.81
2017-07-21T04:09:55.648Z,14.88
2017-07-21T04:10:55.642Z,14.72
2017-07-21T04:11:55.621Z,14.75
2017-07-21T04:12:55.295Z,14.72
2017-07-21T04:13:55.596Z,14.83
2017-07-21T04:14:55.278Z,14.91
2017-07-21T04:15:55.266Z,14.83
2017-07-21T04:16:55.250Z,14.81
2017-07-21T04:17:55.239Z,14.84
2017-07-21T04:18:55.227Z,14.8
2017-07-21T04:19:55.214Z,14.84
2017-07-21T04:20:55.201Z,14.74
2017-07-21T04:21:54.881Z,14.83
2017-07-21T04:22:55.501Z,14.83
2017-07-21T04:23:55.482Z,14.84
2017-07-21T04:24:55.504Z,14.84
2017-07-21T04:25:55.143Z,14.83
2017-07-21T04:26:55.446Z,14.81
2017-07-21T04:27:55.128Z,14.83
2017-07-21T04:28:55.425Z,14.91
2017-07-21T04:29:55.094Z,14.88
2017-07-21T04:30:54.773Z,14.87
2017-07-21T04:31:55.073Z,14.8
2017-07-21T04:32:54.749Z,14.86
2017-07-21T04:33:55.054Z,14.88
2017-07-21T04:34:55.347Z,14.93
2017-07-21T04:35:55.025Z,14.88
2017-07-21T04:36:55.013Z,14.91
2017-07-21T04:37:55.313Z,14.95
2017-07-21T04:38:54.992Z,14.95
2017-07-21T04:39:55.294Z,15.01
2017-07-21T04:40:54.966Z,15.02
2017-07-21T04:41:54.950Z,14.91
2017-07-21T04:42:54.951Z,14.98
2017-07-21T04:43:54.930Z,14.99
2017-07-21T04:44:54.969Z,15.03
2017-07-21T04:45:55.220Z,15.03
2017-07-21T04:46:54.893Z,15.05
2017-07-21T04:47:54.578Z,15.11
2017-07-21T04:48:54.871Z,15.08
2017-07-21T04:49:55.172Z,15.08
2017-07-21T04:50:55.162Z,15.15
2017-07-21T04:51:55.149Z,15.13
2017-07-21T04:52:54.828Z,15.11
2017-07-21T04:53:55.123Z,15.11
2017-07-21T04:54:55.114Z,15.15
2017-07-21T04:55:55.094Z,15.23
2017-07-21T04:56:54.474Z,15.12
2017-07-21T04:57:55.073Z,15.24
2017-07-21T04:58:54.746Z,15.21
2017-07-21T04:59:54.747Z,15.28
2017-07-21T05:00:54.735Z,15.24
2017-07-21T05:01:54.715Z,15.3
2017-07-21T05:02:54.392Z,15.19
2017-07-21T05:03:55.007Z,15.3
2017-07-21T05:04:55.023Z,15.28
2017-07-21T05:05:54.873Z,15.28
2017-07-21T05:06:54.974Z,15.35
2017-07-21T05:07:54.653Z,15.39
2017-07-21T05:08:54.947Z,15.35
2017-07-21T05:09:54.932Z,15.36
2017-07-21T05:10:54.923Z,15.31
2017-07-21T05:11:54.293Z,15.39
2017-07-21T05:12:54.587Z,15.46
2017-07-21T05:13:54.260Z,15.42
2017-07-21T05:14:54.560Z,15.41
2017-07-21T05:15:54.242Z,15.48
2017-07-21T05:16:54.226Z,15.54
2017-07-21T05:17:54.538Z,15.46
2017-07-21T05:18:54.516Z,15.56
2017-07-21T05:19:54.207Z,15.48
2017-07-21T05:20:54.494Z,15.49
2017-07-21T05:21:54.788Z,15.59
2017-07-21T05:22:54.469Z,15.57
2017-07-21T05:23:54.455Z,15.56
2017-07-21T05:24:54.136Z,15.59
2017-07-21T05:25:54.432Z,15.68
2017-07-21T05:26:54.420Z,15.63
2017-07-21T05:27:54.408Z,15.68
2017-07-21T05:28:54.403Z,15.66
2017-07-21T05:29:54.702Z,15.66
2017-07-21T05:30:54.372Z,15.66
2017-07-21T05:31:54.674Z,15.75
2017-07-21T05:32:54.359Z,15.72
2017-07-21T05:33:54.652Z,15.68
2017-07-21T05:34:54.032Z,15.78
2017-07-21T05:35:54.637Z,15.79
2017-07-21T05:36:54.626Z,15.79
2017-07-21T05:37:54.610Z,15.74
2017-07-21T05:38:54.589Z,15.84
2017-07-21T05:39:54.269Z,15.86
2017-07-21T05:40:54.307Z,15.82
2017-07-21T05:41:53.938Z,15.92
2017-07-21T05:42:54.547Z,15.94
2017-07-21T05:43:54.235Z,15.88
2017-07-21T05:44:54.214Z,15.92
2017-07-21T05:45:54.210Z,15.93
2017-07-21T05:46:54.232Z,16.01
2017-07-21T05:47:54.494Z,16.01
2017-07-21T05:48:54.168Z,16.04
2017-07-21T05:49:54.157Z,16.11
2017-07-21T05:50:54.458Z,16.07
2017-07-21T05:51:54.452Z,16.16
2017-07-21T05:52:53.814Z,16.14
2017-07-21T05:53:54.109Z,16.14
2017-07-21T05:54:54.410Z,16.12
2017-07-21T05:55:54.147Z,16.16
2017-07-21T05:56:54.079Z,16.23
2017-07-21T05:57:54.067Z,16.22
2017-07-21T05:58:54.374Z,16.16
2017-07-21T05:59:54.046Z,16.25
2017-07-21T06:00:53.725Z,16.25
2017-07-21T06:01:54.023Z,16.26
2017-07-21T06:02:54.321Z,16.27
2017-07-21T06:03:53.995Z,16.33
2017-07-21T06:04:54.305Z,16.3
2017-07-21T06:05:54.286Z,16.33
2017-07-21T06:06:54.276Z,16.41
2017-07-21T06:07:53.699Z,16.41
2017-07-21T06:08:53.945Z,16.33
2017-07-21T06:09:53.929Z,16.45
2017-07-21T06:10:53.933Z,16.5
2017-07-21T06:11:54.221Z,16.42
2017-07-21T06:12:53.898Z,16.42
2017-07-21T06:13:53.888Z,16.55
2017-07-21T06:14:53.873Z,16.49
2017-07-21T06:15:53.863Z,16.6
2017-07-21T06:16:53.847Z,16.59
2017-07-21T06:17:54.153Z,16.6
2017-07-21T06:18:54.144Z,16.58
2017-07-21T06:19:54.129Z,16.62
2017-07-21T06:20:53.803Z,16.68
2017-07-21T06:21:53.523Z,16.63
2017-07-21T06:22:53.785Z,16.73
2017-07-21T06:23:53.460Z,16.68
2017-07-21T06:24:53.763Z,16.74
2017-07-21T06:25:53.756Z,16.8
2017-07-21T06:26:54.053Z,16.67
2017-07-21T06:27:53.725Z,16.83
2017-07-21T06:28:54.065Z,16.75
2017-07-21T06:29:54.022Z,16.85
2017-07-21T06:30:53.702Z,16.77
2017-07-21T06:31:53.376Z,16.81
2017-07-21T06:32:53.672Z,16.89
2017-07-21T06:33:53.975Z,16.88
2017-07-21T06:34:53.649Z,16.93
2017-07-21T06:35:53.637Z,16.89
2017-07-21T06:36:53.665Z,16.95
2017-07-21T06:37:53.619Z,17.04
2017-07-21T06:38:53.604Z,17
2017-07-21T06:39:53.321Z,17.04
2017-07-21T06:40:53.899Z,17.1
2017-07-21T06:41:53.889Z,17.06
2017-07-21T06:42:53.250Z,17.1
2017-07-21T06:43:53.590Z,17.08
2017-07-21T06:44:53.853Z,17.08
2017-07-21T06:45:53.533Z,17.14
2017-07-21T06:46:53.210Z,17.15
2017-07-21T06:47:53.523Z,17.22
2017-07-21T06:48:53.499Z,17.23
2017-07-21T06:49:53.484Z,17.25
2017-07-21T06:50:53.166Z,17.28
2017-07-21T06:51:53.464Z,17.36
2017-07-21T06:52:53.458Z,17.35
2017-07-21T06:53:53.448Z,17.47
2017-07-21T06:54:53.489Z,17.51
2017-07-21T06:55:53.437Z,17.48
2017-07-21T06:56:53.416Z,17.51
2017-07-21T06:57:53.715Z,17.48
2017-07-21T06:58:53.397Z,17.41
2017-07-21T06:59:53.379Z,17.43
2017-07-21T07:00:53.679Z,17.4
2017-07-21T07:01:53.672Z,17.53
2017-07-21T07:02:53.658Z,17.57
2017-07-21T07:03:53.653Z,17.57
2017-07-21T07:04:53.016Z,17.62
2017-07-21T07:05:53.835Z,17.54
2017-07-21T07:06:53.003Z,17.66
2017-07-21T07:07:53.610Z,17.67
2017-07-21T07:08:53.283Z,17.71
2017-07-21T07:09:53.278Z,17.74
2017-07-21T07:10:52.950Z,17.71
2017-07-21T07:11:53.569Z,17.79
2017-07-21T07:12:53.243Z,17.82
2017-07-21T07:13:53.235Z,17.85
2017-07-21T07:14:53.223Z,17.82
2017-07-21T07:15:53.215Z,17.89
2017-07-21T07:16:53.208Z,17.91
2017-07-21T07:17:53.511Z,17.95
2017-07-21T07:18:53.491Z,18.02
2017-07-21T07:19:53.173Z,17.97
2017-07-21T07:20:53.170Z,18.03
2017-07-21T07:21:53.472Z,17.99
2017-07-21T07:22:53.142Z,17.95
2017-07-21T07:23:53.150Z,18.12
2017-07-21T07:24:53.440Z,17.97
2017-07-21T07:25:53.434Z,18.06
2017-07-21T07:26:53.107Z,18.09
2017-07-21T07:27:53.424Z,18.04
2017-07-21T07:28:52.769Z,18.12
2017-07-21T07:29:53.389Z,18.1
2017-07-21T07:30:53.060Z,18.18
2017-07-21T07:31:53.367Z,18.18
2017-07-21T07:32:53.353Z,18.22
2017-07-21T07:33:53.047Z,18.19
2017-07-21T07:34:53.362Z,18.27
2017-07-21T07:35:53.007Z,18.31
2017-07-21T07:36:53.320Z,18.54
2017-07-21T07:37:52.996Z,19.35
2017-07-21T07:38:52.670Z,20.66
2017-07-21T07:39:52.969Z,21.74
2017-07-21T07:40:52.962Z,22.72
2017-07-21T07:41:52.956Z,23.61
2017-07-21T07:42:52.953Z,24.19
2017-07-21T07:43:53.254Z,24.79
2017-07-21T07:44:53.254Z,25.34
2017-07-21T07:45:52.619Z,25.77
2017-07-21T07:46:53.244Z,26.09
2017-07-21T07:47:53.239Z,26.4
2017-07-21T07:48:52.606Z,26.74
2017-07-21T07:49:52.914Z,27.19
2017-07-21T07:50:52.592Z,27.33
2017-07-21T07:51:53.219Z,27.53
2017-07-21T07:52:52.906Z,27.73
2017-07-21T07:53:53.202Z,27.26
2017-07-21T07:54:52.576Z,27.21
2017-07-21T07:55:52.886Z,27.57
2017-07-21T07:56:53.191Z,27.66
2017-07-21T07:57:52.572Z,27.84
2017-07-21T07:58:52.875Z,28.13
2017-07-21T07:59:52.881Z,28.33
2017-07-21T08:00:52.879Z,28.19
2017-07-21T08:01:52.536Z,28.13
2017-07-21T08:02:52.861Z,28.11
2017-07-21T08:03:53.176Z,28.11
2017-07-21T08:04:52.863Z,28.14
2017-07-21T08:05:53.167Z,28.32
2017-07-21T08:06:52.540Z,28.46
2017-07-21T08:07:52.907Z,28.77
2017-07-21T08:08:53.164Z,29.19
2017-07-21T08:09:52.533Z,29.19
2017-07-21T08:10:53.169Z,29.04
2017-07-21T08:11:52.843Z,29.19
2017-07-21T08:12:53.154Z,29.38
2017-07-21T08:13:52.842Z,29.71
2017-07-21T08:14:52.842Z,29.5
2017-07-21T08:15:53.156Z,29.41
2017-07-21T08:16:52.842Z,29.55
2017-07-21T08:17:52.839Z,29.37
2017-07-21T08:18:52.523Z,29.45
2017-07-21T08:19:52.835Z,29.4
2017-07-21T08:20:53.157Z,29.25
2017-07-21T08:21:52.831Z,29.4
2017-07-21T08:22:52.522Z,29.5
2017-07-21T08:23:52.830Z,29.5
2017-07-21T08:24:53.156Z,29.34
2017-07-21T08:25:52.830Z,29.59
2017-07-21T08:26:52.519Z,29.81
2017-07-21T08:27:53.166Z,29.78
2017-07-21T08:28:52.836Z,29.79
2017-07-21T08:29:53.149Z,30.14
2017-07-21T08:30:53.148Z,30.12
2017-07-21T08:31:52.514Z,30.26
2017-07-21T08:32:52.828Z,30.38
2017-07-21T08:33:53.148Z,30.3
2017-07-21T08:34:53.170Z,30.24
2017-07-21T08:35:53.149Z,30.33
2017-07-21T08:36:53.146Z,30.46
2017-07-21T08:37:52.836Z,30.54
2017-07-21T08:38:53.146Z,30.61
2017-07-21T08:39:52.832Z,30.61
2017-07-21T08:40:53.150Z,30.4
2017-07-21T08:41:52.531Z,30.31
2017-07-21T08:42:52.831Z,30.31
2017-07-21T08:43:52.838Z,30.24
2017-07-21T08:44:52.840Z,30.33
2017-07-21T08:45:53.152Z,30.65
2017-07-21T08:46:52.834Z,30.62
2017-07-21T08:47:52.844Z,30.29
2017-07-21T08:48:52.558Z,30.19
2017-07-21T08:49:52.847Z,30.24
2017-07-21T08:50:53.159Z,30.08
2017-07-21T08:51:52.848Z,29.86
2017-07-21T08:52:52.846Z,29.75
2017-07-21T08:53:52.532Z,29.35
2017-07-21T08:54:52.538Z,29.18
2017-07-21T08:55:52.841Z,28.97
2017-07-21T08:56:52.855Z,28.69
2017-07-21T08:57:53.163Z,28.72
2017-07-21T08:58:52.529Z,28.9
2017-07-21T08:59:52.844Z,28.77
2017-07-21T09:00:52.844Z,28.36
2017-07-21T09:01:52.840Z,27.71
2017-07-21T09:02:52.846Z,27.23
2017-07-21T09:03:52.836Z,27.02
2017-07-21T09:04:52.835Z,26.83
2017-07-21T09:05:53.031Z,26.46
2017-07-21T09:06:52.515Z,25.93
2017-07-21T09:07:52.823Z,25.5
2017-07-21T09:08:52.825Z,25.15
2017-07-21T09:09:52.821Z,24.75
2017-07-21T09:10:52.819Z,24.54
2017-07-21T09:11:52.500Z,24.29
2017-07-21T09:12:52.811Z,24.05
2017-07-21T09:13:52.805Z,23.76
2017-07-21T09:14:53.115Z,23.57
2017-07-21T09:15:52.487Z,23.43
2017-07-21T09:16:52.792Z,23.39
2017-07-21T09:17:52.794Z,23.24
2017-07-21T09:18:53.096Z,23.07
2017-07-21T09:19:52.787Z,23.02
2017-07-21T09:20:53.093Z,23.12
2017-07-21T09:21:52.770Z,23.12
2017-07-21T09:22:52.763Z,23.11
2017-07-21T09:23:52.766Z,22.94
2017-07-21T09:24:52.445Z,22.72
2017-07-21T09:25:52.442Z,22.5
2017-07-21T09:26:52.750Z,22.5
2017-07-21T09:27:52.750Z,22.34
2017-07-21T09:28:53.061Z,22.34
2017-07-21T09:29:53.058Z,22.34
2017-07-21T09:30:52.726Z,22.52
2017-07-21T09:31:53.034Z,22.5
2017-07-21T09:32:52.720Z,22.54
2017-07-21T09:33:53.033Z,22.56
2017-07-21T09:34:52.713Z,22.54
2017-07-21T09:35:52.391Z,22.65
2017-07-21T09:36:53.010Z,22.72
2017-07-21T09:37:53.007Z,22.8
2017-07-21T09:38:52.999Z,22.8
2017-07-21T09:39:52.683Z,22.87
2017-07-21T09:40:52.992Z,22.84
2017-07-21T09:41:52.362Z,22.94
2017-07-21T09:42:52.978Z,22.99
2017-07-21T09:43:52.974Z,23.04
2017-07-21T09:44:52.969Z,23.05
2017-07-21T09:45:52.974Z,22.86
2017-07-21T09:46:52.333Z,22.82
2017-07-21T09:47:52.951Z,22.77
2017-07-21T09:48:52.953Z,22.71
2017-07-21T09:49:52.943Z,22.82
2017-07-21T09:50:52.312Z,22.82
2017-07-21T09:51:52.931Z,22.72
2017-07-21T09:52:52.917Z,22.71
2017-07-21T09:53:52.654Z,22.72
2017-07-21T09:54:52.289Z,22.62
2017-07-21T09:55:52.904Z,22.6
2017-07-21T09:56:52.274Z,22.46
2017-07-21T09:57:52.585Z,22.5
2017-07-21T09:58:52.897Z,22.46
2017-07-21T09:59:52.566Z,22.43
2017-07-21T10:00:52.881Z,22.31
2017-07-21T10:01:52.867Z,22.35
2017-07-21T10:02:52.270Z,22.44
2017-07-21T10:03:52.859Z,22.46
2017-07-21T10:04:52.546Z,22.52
2017-07-21T10:05:52.220Z,22.43
2017-07-21T10:06:52.213Z,22.46
2017-07-21T10:07:52.722Z,22.39
2017-07-21T10:08:52.825Z,22.44
2017-07-21T10:09:52.513Z,22.6
2017-07-21T10:10:52.821Z,22.6
2017-07-21T10:11:52.186Z,22.65
2017-07-21T10:12:52.494Z,22.64
2017-07-21T10:13:52.485Z,22.6
2017-07-21T10:14:52.169Z,22.64
2017-07-21T10:15:52.781Z,22.71
2017-07-21T10:16:52.475Z,22.75
2017-07-21T10:17:52.777Z,22.72
2017-07-21T10:18:52.766Z,22.86
2017-07-21T10:19:52.764Z,23.09
2017-07-21T10:20:52.449Z,23.57
2017-07-21T10:21:52.127Z,23.89
2017-07-21T10:22:52.749Z,24.04
2017-07-21T10:23:52.749Z,24.31
2017-07-21T10:24:52.764Z,24.37
2017-07-21T10:25:52.733Z,24.37
2017-07-21T10:26:52.418Z,24.2
2017-07-21T10:27:52.418Z,24.1
2017-07-21T10:28:52.725Z,24.1
2017-07-21T10:29:52.408Z,24.37
2017-07-21T10:30:52.401Z,24.53
2017-07-21T10:31:52.402Z,25.01
2017-07-21T10:32:52.713Z,25.62
2017-07-21T10:33:52.705Z,25.94
2017-07-21T10:34:52.391Z,26.42
2017-07-21T10:35:52.392Z,26.72
2017-07-21T10:36:52.393Z,27.17
2017-07-21T10:37:52.074Z,27.67
2017-07-21T10:38:52.699Z,28.07
2017-07-21T10:39:52.701Z,28.35
2017-07-21T10:40:52.392Z,28.35
2017-07-21T10:41:52.388Z,28.38
2017-07-21T10:42:52.703Z,28.41
2017-07-21T10:43:52.704Z,28.43
2017-07-21T10:44:52.084Z,28.58
2017-07-21T10:45:52.084Z,28.68
2017-07-21T10:46:52.712Z,28.69
2017-07-21T10:47:52.400Z,28.8
2017-07-21T10:48:52.708Z,29.16
2017-07-21T10:49:52.093Z,29.33
2017-07-21T10:50:52.720Z,29.53
2017-07-21T10:51:52.410Z,29.7
2017-07-21T10:52:52.723Z,29.66
2017-07-21T10:53:52.727Z,29.59
2017-07-21T10:54:52.109Z,29.56
2017-07-21T10:55:52.732Z,29.29
2017-07-21T10:56:52.736Z,29.13
2017-07-21T10:57:52.428Z,29.11
2017-07-21T10:58:52.433Z,29.07
2017-07-21T10:59:52.740Z,29.11
2017-07-21T11:00:52.430Z,29.4
2017-07-21T11:01:52.754Z,29.68
2017-07-21T11:02:52.750Z,29.81
2017-07-21T11:03:52.442Z,29.4
2017-07-21T11:04:52.147Z,29.03
2017-07-21T11:05:52.340Z,29.22
2017-07-21T11:06:52.453Z,29.44
2017-07-21T11:07:52.795Z,29.72
2017-07-21T11:08:52.147Z,29.65
2017-07-21T11:09:52.464Z,29.56
2017-07-21T11:10:52.783Z,29.71
2017-07-21T11:11:52.468Z,29.84
2017-07-21T11:12:52.789Z,29.87
2017-07-21T11:13:52.480Z,30.15
2017-07-21T11:14:52.796Z,30
2017-07-21T11:15:52.487Z,29.81
2017-07-21T11:16:52.807Z,29.84
2017-07-21T11:17:52.490Z,29.74
2017-07-21T11:18:52.504Z,29.84
2017-07-21T11:19:52.812Z,29.86
2017-07-21T11:20:52.515Z,30
2017-07-21T11:21:52.196Z,30.31
2017-07-21T11:22:52.825Z,30.62
2017-07-21T11:23:52.208Z,30.61
2017-07-21T11:24:52.834Z,30.56
2017-07-21T11:25:52.840Z,29.99
2017-07-21T11:26:52.526Z,30
2017-07-21T11:27:52.899Z,30.09
2017-07-21T11:28:52.852Z,30.21
2017-07-21T11:29:52.535Z,30.33
2017-07-21T11:30:52.550Z,30.46
2017-07-21T11:31:52.622Z,30.62
2017-07-21T11:32:52.871Z,30.75
2017-07-21T11:33:52.254Z,30.57
2017-07-21T11:34:52.556Z,30.86
2017-07-21T11:35:52.616Z,30.98
2017-07-21T11:36:52.571Z,31.05
2017-07-21T11:37:52.282Z,30.98
2017-07-21T11:38:52.575Z,31.12
2017-07-21T11:39:52.580Z,31.28
2017-07-21T11:40:52.904Z,31.2
2017-07-21T11:41:52.606Z,31.31
2017-07-21T11:42:52.280Z,31.27
2017-07-21T11:43:52.597Z,31.27
2017-07-21T11:44:52.918Z,31.4
2017-07-21T11:45:52.294Z,31.42
2017-07-21T11:46:52.618Z,31.61
2017-07-21T11:47:52.615Z,31.62
2017-07-21T11:48:52.936Z,31.65
2017-07-21T11:49:52.936Z,31.62
2017-07-21T11:50:52.937Z,31.7
2017-07-21T11:51:52.944Z,31.73
2017-07-21T11:52:52.326Z,31.87
2017-07-21T11:53:52.641Z,31.43
2017-07-21T11:54:52.645Z,31.12
2017-07-21T11:55:52.703Z,31.18
2017-07-21T11:56:52.343Z,31.28
2017-07-21T11:57:52.673Z,31.35
2017-07-21T11:58:52.982Z,31.4
2017-07-21T11:59:52.984Z,31.46
2017-07-21T12:00:52.412Z,31.57
2017-07-21T12:01:52.676Z,31.53
2017-07-21T12:02:52.369Z,31.42
2017-07-21T12:03:52.997Z,31.7
2017-07-21T12:04:53.009Z,31.85
2017-07-21T12:05:52.704Z,32.13
2017-07-21T12:06:53.015Z,32.21
2017-07-21T12:07:52.707Z,32.18
2017-07-21T12:08:53.022Z,32.4
2017-07-21T12:09:52.412Z,32.47
2017-07-21T12:10:52.726Z,32.48
2017-07-21T12:11:53.066Z,32.4
2017-07-21T12:12:53.257Z,32.33
2017-07-21T12:13:52.737Z,32.55
2017-07-21T12:14:52.741Z,32.44
2017-07-21T12:15:53.059Z,32.42
2017-07-21T12:16:52.750Z,32.35
2017-07-21T12:17:53.067Z,32.49
2017-07-21T12:18:52.442Z,32.71
2017-07-21T12:19:52.769Z,32.54
2017-07-21T12:20:52.829Z,32.55
2017-07-21T12:21:52.771Z,32.35
2017-07-21T12:22:52.774Z,32.03
2017-07-21T12:23:53.095Z,31.85
2017-07-21T12:24:52.479Z,31.99
2017-07-21T12:25:52.799Z,32.05
2017-07-21T12:26:52.799Z,31.88
2017-07-21T12:27:52.810Z,32.03
2017-07-21T12:28:52.813Z,32.22
2017-07-21T12:29:52.817Z,32.43
2017-07-21T12:30:52.821Z,32.59
2017-07-21T12:31:52.517Z,32.57
2017-07-21T12:32:53.144Z,32.8
2017-07-21T12:33:53.153Z,32.93
2017-07-21T12:34:52.526Z,32.95
2017-07-21T12:35:52.847Z,33.19
2017-07-21T12:36:52.853Z,33.33
2017-07-21T12:37:52.857Z,33.07
2017-07-21T12:38:52.865Z,32.96
2017-07-21T12:39:52.868Z,32.96
2017-07-21T12:40:52.558Z,33.01
2017-07-21T12:41:53.188Z,33.22
2017-07-21T12:42:52.882Z,33.23
2017-07-21T12:43:52.887Z,33.31
2017-07-21T12:44:52.888Z,33.33
2017-07-21T12:45:53.285Z,33.26
2017-07-21T12:46:52.903Z,33.11
2017-07-21T12:47:52.909Z,32.74
2017-07-21T12:48:53.233Z,32.66
2017-07-21T12:49:52.925Z,32.84
2017-07-21T12:50:52.608Z,33.03
2017-07-21T12:51:53.240Z,33.29
2017-07-21T12:52:52.617Z,33.19
2017-07-21T12:53:52.933Z,33.13
2017-07-21T12:54:52.938Z,33.22
2017-07-21T12:55:52.943Z,33.39